This is the latest recevied weather packets stored in our database for station/object HA9MJ-10. If no packets are shown the sender has not sent any weather packets the latest 10 day(s).
| Time | Temp. | Humidity | Pressure | Rain* | Wind** | Luminosity | Snow |
|---|---|---|---|---|---|---|---|
| 1777525504 | 23.89° C | 40% | 1027.7 hPa | - | - | - | - |
| 1777521903 | 23.89° C | 40% | 1027.1 hPa | - | - | - | - |
| 1777518303 | 24.44° C | 40% | 1026.9 hPa | - | - | - | - |
| 1777514703 | 25.56° C | 38% | 1026.8 hPa | - | - | - | - |
| 1777511103 | 26.11° C | 38% | 1026.7 hPa | - | - | - | - |
| 1777507503 | 27.78° C | 35% | 1026.5 hPa | - | - | - | - |
| 1777503903 | 28.89° C | 33% | 1026.7 hPa | - | - | - | - |
| 1777500302 | 30° C | 31% | 1026.3 hPa | - | - | - | - |
| 1777496702 | 30.56° C | 30% | 1025.6 hPa | - | - | - | - |
| 1777493102 | 28.89° C | 31% | 1025.1 hPa | - | - | - | - |
| 1777489502 | 25° C | 34% | 1024.5 hPa | - | - | - | - |
| 1777485907 | 21.11° C | 40% | - | - | - | - | - |
| 1777485902 | 21.11° C | 40% | 1024 hPa | - | - | - | - |
| 1777482302 | 19.44° C | 43% | 1023.3 hPa | - | - | - | - |
| 1777478701 | 19.44° C | 43% | 1022.7 hPa | - | - | - | - |
| 1777475101 | 20° C | 44% | 1022.1 hPa | - | - | - | - |
| 1777471501 | 20° C | 44% | 1021.9 hPa | - | - | - | - |
| 1777467911 | 20° C | 44% | - | - | - | - | - |
| 1777467901 | 20° C | 44% | 1021.7 hPa | - | - | - | - |
| 1777464301 | 20° C | 44% | 1022 hPa | - | - | - | - |
| 1777460701 | 20° C | 45% | 1022.1 hPa | - | - | - | - |
| 1777457100 | 20° C | 44% | 1022.4 hPa | - | - | - | - |
| 1777453500 | 20.56° C | 44% | 1022.7 hPa | - | - | - | - |
| 1777449905 | 20.56° C | 44% | 1022.9 hPa | - | - | - | - |
| 1777446304 | 20.56° C | 44% | 1023 hPa | - | - | - | - |
* Rain since midnight (hover to see other rain measurements)
** Current wind speed in m/s (hover to see current wind gust speed)